Time;durP1;ratioP1;P1;durP2;ratioP2;P2;SDS_P1;SDS_P2;PMS_P1;PMS_P2;Temp;Humidity;BMP_temperature;BMP_pressure;BME280_temperature;BME280_humidity;BME280_pressure;Samples;Min_cycle;Max_cycle;Signal;HPM_P1;HPM_P2
2023/08/12 00:00:13;;;;;;;7.10;3.67;;;;;;;;;;5111298;28;20027;-59
2023/08/12 00:02:39;;;;;;;7.38;3.67;;;;;;;;;;5125414;28;20543;-60
2023/08/12 00:05:05;;;;;;;8.32;3.83;;;;;;;;;;5120333;27;20098;-58
2023/08/12 00:07:30;;;;;;;7.28;3.55;;;;;;;;;;5129284;27;20007;-59
2023/08/12 00:09:56;;;;;;;7.95;3.25;;;;;;;;;;5121291;27;20027;-58
2023/08/12 00:12:21;;;;;;;7.13;3.20;;;;;;;;;;5128221;28;20020;-59
2023/08/12 00:14:46;;;;;;;6.82;3.75;;;;;;;;;;5127474;27;20509;-57
2023/08/12 00:17:12;;;;;;;5.80;2.90;;;;;;;;;;5110987;28;20436;-58
2023/08/12 00:19:37;;;;;;;8.13;3.30;;;;;;;;;;5111067;28;20031;-57
2023/08/12 00:22:02;;;;;;;7.53;3.27;;;;;;;;;;5110556;28;20479;-59
2023/08/12 00:24:27;;;;;;;8.13;3.53;;;;;;;;;;5125575;28;20027;-57
2023/08/12 00:26:53;;;;;;;7.73;3.27;;;;;;;;;;5134137;27;20427;-59
2023/08/12 00:29:18;;;;;;;6.25;2.95;;;;;;;;;;5151924;27;20023;-59
2023/08/12 00:31:43;;;;;;;6.20;2.93;;;;;;;;;;5151661;27;20119;-59
2023/08/12 00:34:08;;;;;;;5.65;3.30;;;;;;;;;;5151727;27;20067;-59
2023/08/12 00:36:33;;;;;;;6.97;3.53;;;;;;;;;;5152259;27;20494;-57
2023/08/12 00:38:59;;;;;;;6.10;3.13;;;;;;;;;;5113782;27;20016;-59
2023/08/12 00:41:24;;;;;;;6.03;3.00;;;;;;;;;;5126589;27;20571;-58
2023/08/12 00:43:49;;;;;;;7.93;3.10;;;;;;;;;;5110436;27;20042;-58
2023/08/12 00:46:15;;;;;;;5.60;3.05;;;;;;;;;;5116762;28;20020;-57
2023/08/12 00:48:40;;;;;;;7.20;3.30;;;;;;;;;;5131216;27;20121;-58
2023/08/12 00:51:05;;;;;;;6.68;3.30;;;;;;;;;;5131185;27;20413;-59
2023/08/12 00:53:31;;;;;;;6.07;3.17;;;;;;;;;;5130746;27;20381;-59
2023/08/12 00:55:56;;;;;;;6.68;3.28;;;;;;;;;;5131185;27;20445;-59
2023/08/12 00:58:21;;;;;;;6.53;3.10;;;;;;;;;;5123547;28;20467;-60
2023/08/12 01:00:46;;;;;;;5.95;3.20;;;;;;;;;;5115764;27;20043;-58
2023/08/12 01:03:12;;;;;;;7.07;3.73;;;;;;;;;;5134493;27;20068;-58
2023/08/12 01:05:37;;;;;;;6.85;2.80;;;;;;;;;;5134519;27;20019;-58
2023/08/12 01:08:02;;;;;;;6.03;3.30;;;;;;;;;;5134671;27;20035;-58
2023/08/12 01:10:31;;;;;;;7.88;3.63;;;;;;;;;;5135908;27;20020;-58
2023/08/12 01:13:04;;;;;;;6.85;3.28;;;;;;;;;;5135948;27;20019;-56
2023/08/12 01:15:29;;;;;;;6.90;3.45;;;;;;;;;;5136994;27;20023;-58
2023/08/12 01:17:55;;;;;;;5.83;3.30;;;;;;;;;;5136301;27;20011;-58
2023/08/12 01:20:27;;;;;;;5.93;3.28;;;;;;;;;;5134705;27;20019;-61
2023/08/12 01:22:55;;;;;;;8.52;3.42;;;;;;;;;;5133889;27;20018;-58
2023/08/12 01:25:20;;;;;;;8.60;3.65;;;;;;;;;;5134038;27;20112;-58
2023/08/12 01:27:46;;;;;;;6.27;3.47;;;;;;;;;;5133908;27;20494;-59
2023/08/12 01:30:11;;;;;;;7.30;2.92;;;;;;;;;;5134103;27;20007;-59
2023/08/12 01:32:45;;;;;;;6.38;3.45;;;;;;;;;;5134034;27;20126;-59
2023/08/12 01:35:17;;;;;;;6.60;3.30;;;;;;;;;;5125560;27;20020;-58
2023/08/12 01:37:43;;;;;;;5.90;3.20;;;;;;;;;;5113100;28;20028;-59
2023/08/12 01:40:09;;;;;;;6.18;3.30;;;;;;;;;;5113738;27;20027;-58
2023/08/12 01:42:34;;;;;;;5.80;3.40;;;;;;;;;;5117399;27;20018;-58
2023/08/12 01:45:01;;;;;;;6.10;2.75;;;;;;;;;;5124859;27;20099;-58
2023/08/12 01:47:26;;;;;;;6.55;3.25;;;;;;;;;;5136219;27;20505;-59
2023/08/12 01:49:52;;;;;;;6.07;3.30;;;;;;;;;;5154363;27;20027;-59
2023/08/12 01:52:17;;;;;;;6.37;3.03;;;;;;;;;;5154474;27;20045;-58
2023/08/12 01:54:42;;;;;;;5.60;3.20;;;;;;;;;;5153900;27;20065;-58
2023/08/12 01:57:08;;;;;;;6.70;3.20;;;;;;;;;;5154442;27;20015;-57
2023/08/12 01:59:34;;;;;;;;;;;;;;;;;;5153578;27;20018;-58
2023/08/12 02:01:59;;;;;;;6.32;3.28;;;;;;;;;;5131357;27;19907;-57
2023/08/12 02:04:24;;;;;;;7.27;3.37;;;;;;;;;;5132414;27;20057;-58
2023/08/12 02:06:50;;;;;;;7.03;3.47;;;;;;;;;;5128188;27;20020;-58
2023/08/12 02:09:15;;;;;;;6.07;3.30;;;;;;;;;;5116316;27;20050;-59
2023/08/12 02:11:40;;;;;;;6.63;3.50;;;;;;;;;;5130899;27;20080;-58
2023/08/12 02:14:05;;;;;;;6.50;3.43;;;;;;;;;;5127967;27;20039;-57
2023/08/12 02:16:30;;;;;;;8.27;3.40;;;;;;;;;;5116054;27;20053;-58
2023/08/12 02:18:56;;;;;;;6.13;3.22;;;;;;;;;;5128538;27;20114;-58
2023/08/12 02:21:21;;;;;;;5.93;3.03;;;;;;;;;;5130996;27;20038;-59
2023/08/12 02:23:46;;;;;;;6.67;3.80;;;;;;;;;;5111884;28;20022;-58
2023/08/12 02:26:11;;;;;;;6.83;3.00;;;;;;;;;;5118922;27;20015;-57
2023/08/12 02:28:36;;;;;;;5.72;2.72;;;;;;;;;;5116039;27;20032;-57
2023/08/12 02:31:01;;;;;;;7.00;3.20;;;;;;;;;;5111116;27;20031;-58
2023/08/12 02:33:26;;;;;;;7.60;3.43;;;;;;;;;;5111948;28;20472;-58
2023/08/12 02:35:54;;;;;;;5.33;3.00;;;;;;;;;;5112514;27;20043;-57
2023/08/12 02:38:20;;;;;;;5.95;2.97;;;;;;;;;;5112107;28;20368;-60
2023/08/12 02:40:47;;;;;;;7.28;3.15;;;;;;;;;;5116943;27;20092;-58
2023/08/12 02:43:12;;;;;;;6.65;3.20;;;;;;;;;;5111842;27;20486;-58
2023/08/12 02:45:37;;;;;;;5.70;3.20;;;;;;;;;;5114863;27;20042;-58
2023/08/12 02:48:03;;;;;;;7.77;3.33;;;;;;;;;;5112462;27;20027;-58
2023/08/12 02:50:28;;;;;;;6.38;3.42;;;;;;;;;;5117149;27;20102;-59
2023/08/12 02:52:53;;;;;;;7.87;3.47;;;;;;;;;;5127405;27;20478;-57
2023/08/12 02:55:18;;;;;;;6.80;3.57;;;;;;;;;;5115859;27;20007;-57
2023/08/12 02:57:43;;;;;;;7.07;3.60;;;;;;;;;;5125441;27;20519;-57
2023/08/12 03:00:09;;;;;;;6.00;3.20;;;;;;;;;;5128369;27;20026;-57
2023/08/12 03:02:34;;;;;;;6.93;3.53;;;;;;;;;;5115226;27;20631;-59
2023/08/12 03:04:59;;;;;;;8.67;3.17;;;;;;;;;;5110936;28;20028;-59
2023/08/12 03:07:24;;;;;;;6.30;3.70;;;;;;;;;;5113501;27;20043;-59
2023/08/12 03:09:50;;;;;;;7.13;3.60;;;;;;;;;;5121769;27;20110;-60
2023/08/12 03:12:16;;;;;;;6.60;3.50;;;;;;;;;;5111464;28;20059;-57
2023/08/12 03:14:41;;;;;;;7.13;3.40;;;;;;;;;;5110788;28;20034;-59
2023/08/12 03:17:06;;;;;;;7.47;3.20;;;;;;;;;;5124043;27;20646;-57
2023/08/12 03:19:31;;;;;;;6.30;3.70;;;;;;;;;;5121462;27;20020;-57
2023/08/12 03:21:57;;;;;;;8.85;4.32;;;;;;;;;;5115668;27;20031;-57
2023/08/12 03:24:22;;;;;;;7.07;3.60;;;;;;;;;;5131248;27;20015;-57
2023/08/12 03:26:47;;;;;;;7.10;3.53;;;;;;;;;;5116823;27;20444;-58
2023/08/12 03:29:12;;;;;;;7.05;3.78;;;;;;;;;;5116454;27;20045;-59
2023/08/12 03:31:37;;;;;;;5.73;3.40;;;;;;;;;;5111761;27;20395;-58
2023/08/12 03:34:03;;;;;;;8.07;3.10;;;;;;;;;;5120211;27;20027;-59
2023/08/12 03:36:28;;;;;;;6.77;3.83;;;;;;;;;;5121901;27;20075;-59
2023/08/12 03:38:53;;;;;;;6.30;3.20;;;;;;;;;;5109944;28;20041;-59
2023/08/12 03:41:18;;;;;;;7.57;3.40;;;;;;;;;;5125542;27;20064;-58
2023/08/12 03:43:43;;;;;;;5.90;2.90;;;;;;;;;;5130762;27;20406;-58
2023/08/12 03:46:09;;;;;;;7.30;3.33;;;;;;;;;;5121965;27;20051;-58
2023/08/12 03:48:34;;;;;;;7.38;3.10;;;;;;;;;;5114903;28;20020;-59
2023/08/12 03:50:59;;;;;;;9.27;3.53;;;;;;;;;;5111374;28;20440;-59
2023/08/12 03:53:24;;;;;;;5.57;3.10;;;;;;;;;;5126847;28;20050;-58
2023/08/12 03:55:49;;;;;;;8.20;3.67;;;;;;;;;;5131405;27;20015;-57
2023/08/12 03:58:14;;;;;;;7.20;3.77;;;;;;;;;;5122931;28;20098;-58
2023/08/12 04:00:40;;;;;;;7.30;3.53;;;;;;;;;;5111982;28;20028;-58
2023/08/12 04:03:05;;;;;;;7.15;3.17;;;;;;;;;;5115798;28;20468;-59
2023/08/12 04:05:31;;;;;;;5.67;3.60;;;;;;;;;;5113001;27;20054;-59
2023/08/12 04:07:56;;;;;;;6.13;3.45;;;;;;;;;;5109979;28;20027;-58
2023/08/12 04:10:21;;;;;;;6.32;3.05;;;;;;;;;;5115953;28;20039;-59
2023/08/12 04:12:46;;;;;;;5.97;3.40;;;;;;;;;;5131750;28;20075;-57
2023/08/12 04:15:11;;;;;;;6.67;3.70;;;;;;;;;;5123053;27;20039;-59
2023/08/12 04:17:36;;;;;;;6.20;3.30;;;;;;;;;;5117061;28;20464;-57
2023/08/12 04:20:05;;;;;;;6.87;3.43;;;;;;;;;;5131519;27;20037;-59
2023/08/12 04:22:30;;;;;;;5.90;3.28;;;;;;;;;;5131212;27;20030;-59
2023/08/12 04:24:55;;;;;;;6.33;3.20;;;;;;;;;;5112760;27;20034;-57
2023/08/12 04:27:21;;;;;;;5.90;3.15;;;;;;;;;;5110611;28;20132;-58
2023/08/12 04:29:46;;;;;;;6.47;3.40;;;;;;;;;;5110678;28;20020;-59
2023/08/12 04:32:11;;;;;;;5.80;3.25;;;;;;;;;;5127989;27;20455;-58
2023/08/12 04:34:37;;;;;;;8.27;3.00;;;;;;;;;;5117125;27;20019;-59
2023/08/12 04:37:02;;;;;;;6.40;3.50;;;;;;;;;;5114587;28;20153;-59
2023/08/12 04:39:27;;;;;;;5.95;2.92;;;;;;;;;;5114436;28;20449;-58
2023/08/12 04:41:52;;;;;;;6.63;3.00;;;;;;;;;;5128668;27;20102;-59
2023/08/12 04:44:18;;;;;;;5.95;2.88;;;;;;;;;;5114960;27;20094;-56
2023/08/12 04:46:43;;;;;;;6.00;3.40;;;;;;;;;;5114980;27;20099;-58
2023/08/12 04:49:08;;;;;;;8.43;2.97;;;;;;;;;;5114247;27;20023;-57
2023/08/12 04:51:33;;;;;;;5.73;2.97;;;;;;;;;;5121177;27;20028;-57
2023/08/12 04:54:00;;;;;;;;;;;;;;;;;;5119050;27;20019;-57
2023/08/12 04:56:28;;;;;;;6.82;3.28;;;;;;;;;;5124887;27;19911;-58
2023/08/12 04:58:53;;;;;;;6.50;3.05;;;;;;;;;;5118752;27;20067;-58
2023/08/12 05:01:19;;;;;;;6.15;2.90;;;;;;;;;;5115078;27;20518;-58
2023/08/12 05:03:44;;;;;;;;;;;;;;;;;;5114787;28;20027;-58
2023/08/12 05:06:09;;;;;;;7.03;3.30;;;;;;;;;;5122101;27;20028;-58
2023/08/12 05:08:34;;;;;;;6.13;3.20;;;;;;;;;;5118039;27;20503;-57
2023/08/12 05:10:59;;;;;;;5.60;3.30;;;;;;;;;;5123891;27;20076;-60
2023/08/12 05:13:25;;;;;;;8.17;3.40;;;;;;;;;;5134171;27;20042;-59
2023/08/12 05:15:50;;;;;;;;;;;;;;;;;;5130563;27;20391;-57
2023/08/12 05:18:15;;;;;;;5.30;2.88;;;;;;;;;;5113725;28;19966;-58
2023/08/12 05:20:41;;;;;;;7.95;3.30;;;;;;;;;;5117276;27;20077;-58
2023/08/12 05:23:06;;;;;;;5.47;2.72;;;;;;;;;;5113576;28;20055;-57
2023/08/12 05:25:31;;;;;;;7.60;2.60;;;;;;;;;;5117422;27;20126;-60
2023/08/12 05:27:57;;;;;;;5.73;2.97;;;;;;;;;;5124852;27;20487;-57
2023/08/12 05:30:22;;;;;;;5.43;2.80;;;;;;;;;;5117682;27;20023;-58
2023/08/12 05:32:47;;;;;;;;;;;;;;;;;;5132237;27;20023;-60
2023/08/12 05:35:12;;;;;;;6.70;3.13;;;;;;;;;;5128472;27;19908;-59
2023/08/12 05:37:37;;;;;;;;;;;;;;;;;;5125150;27;20445;-58
2023/08/12 05:40:07;;;;;;;5.57;2.92;;;;;;;;;;5113439;28;19994;-57
2023/08/12 05:42:33;;;;;;;6.35;3.00;;;;;;;;;;5124002;27;20033;-59
2023/08/12 05:44:58;;;;;;;;;;;;;;;;;;5133225;27;20019;-58
2023/08/12 05:47:23;;;;;;;7.28;2.80;;;;;;;;;;5133309;27;19903;-58
2023/08/12 05:49:49;;;;;;;5.35;2.90;;;;;;;;;;5129519;27;20033;-59
2023/08/12 05:52:14;;;;;;;6.80;2.88;;;;;;;;;;5130644;27;20027;-59
2023/08/12 05:54:39;;;;;;;7.13;2.47;;;;;;;;;;5122045;27;20035;-59
2023/08/12 05:57:04;;;;;;;6.53;3.13;;;;;;;;;;5121822;27;20090;-59
2023/08/12 05:59:29;;;;;;;5.90;2.40;;;;;;;;;;5112938;28;20027;-59
2023/08/12 06:01:54;;;;;;;5.15;2.63;;;;;;;;;;5127995;27;20026;-59
2023/08/12 06:04:20;;;;;;;11.47;3.17;;;;;;;;;;5130651;27;20019;-59
2023/08/12 06:06:45;;;;;;;5.37;2.73;;;;;;;;;;5114438;27;20506;-59
2023/08/12 06:09:10;;;;;;;5.47;2.70;;;;;;;;;;5112619;28;20095;-59
2023/08/12 06:11:35;;;;;;;6.70;3.25;;;;;;;;;;5111465;27;20517;-59
2023/08/12 06:14:00;;;;;;;5.63;2.78;;;;;;;;;;5112249;28;20027;-59
2023/08/12 06:16:26;;;;;;;5.57;2.70;;;;;;;;;;5113255;28;20024;-59
2023/08/12 06:18:51;;;;;;;;;;;;;;;;;;5113249;28;20383;-59
2023/08/12 06:21:17;;;;;;;5.40;2.88;;;;;;;;;;5112333;28;20282;-59
2023/08/12 06:23:42;;;;;;;6.13;2.80;;;;;;;;;;5111066;27;20035;-59
2023/08/12 06:26:07;;;;;;;;;;;;;;;;;;5113247;28;20088;-59
2023/08/12 06:28:33;;;;;;;6.38;2.80;;;;;;;;;;5115783;27;19966;-59
2023/08/12 06:30:58;;;;;;;6.73;2.70;;;;;;;;;;5119123;27;20022;-59
2023/08/12 06:33:23;;;;;;;5.87;2.57;;;;;;;;;;5127309;27;20084;-59
2023/08/12 06:35:49;;;;;;;5.47;3.00;;;;;;;;;;5123403;27;20437;-59
2023/08/12 06:38:15;;;;;;;7.20;3.15;;;;;;;;;;5111543;28;20050;-61
2023/08/12 06:40:40;;;;;;;5.97;2.50;;;;;;;;;;5116242;27;20566;-59
2023/08/12 06:43:07;;;;;;;7.20;3.08;;;;;;;;;;5114413;27;20015;-60
2023/08/12 06:45:32;;;;;;;5.43;2.72;;;;;;;;;;5112390;27;20055;-59
2023/08/12 06:47:58;;;;;;;10.33;3.00;;;;;;;;;;5113767;27;20054;-59
2023/08/12 06:50:23;;;;;;;5.90;3.10;;;;;;;;;;5126254;27;20482;-59
2023/08/12 06:52:48;;;;;;;6.38;3.15;;;;;;;;;;5124165;27;20617;-59
2023/08/12 06:55:13;;;;;;;;;;;;;;;;;;5115144;27;20063;-59
2023/08/12 06:57:38;;;;;;;5.55;2.95;;;;;;;;;;5111019;27;20414;-60
2023/08/12 07:00:05;;;;;;;4.68;2.90;;;;;;;;;;5110064;27;20030;-59
2023/08/12 07:02:30;;;;;;;5.20;2.88;;;;;;;;;;5108107;27;20035;-60
2023/08/12 07:04:55;;;;;;;8.53;3.00;;;;;;;;;;5110825;27;20027;-59
2023/08/12 07:07:20;;;;;;;6.13;2.97;;;;;;;;;;5108086;28;20023;-59
2023/08/12 07:09:45;;;;;;;8.40;3.00;;;;;;;;;;5108331;27;20347;-57
2023/08/12 07:12:10;;;;;;;7.97;3.10;;;;;;;;;;5108005;28;20399;-59
2023/08/12 07:14:36;;;;;;;6.10;2.55;;;;;;;;;;5107348;27;20027;-59
2023/08/12 07:17:01;;;;;;;6.80;3.20;;;;;;;;;;5107476;27;20026;-59
2023/08/12 07:19:26;;;;;;;6.07;3.30;;;;;;;;;;5109746;27;20024;-60
2023/08/12 07:21:51;;;;;;;6.73;3.20;;;;;;;;;;5107700;28;20101;-60
2023/08/12 07:24:16;;;;;;;7.27;3.00;;;;;;;;;;5117954;27;20513;-60
2023/08/12 07:26:42;;;;;;;6.60;3.13;;;;;;;;;;5108100;27;20124;-59
2023/08/12 07:29:07;;;;;;;6.47;2.93;;;;;;;;;;5116025;27;20037;-58
2023/08/12 07:31:32;;;;;;;5.80;2.80;;;;;;;;;;5115012;27;20031;-59
2023/08/12 07:33:57;;;;;;;7.33;2.90;;;;;;;;;;5107356;28;20027;-58
2023/08/12 07:36:22;;;;;;;;;;;;;;;;;;5110440;27;20360;-59
2023/08/12 07:38:47;;;;;;;5.00;3.00;;;;;;;;;;5107694;28;19912;-58
2023/08/12 07:41:13;;;;;;;7.20;3.60;;;;;;;;;;5122349;27;20049;-59
2023/08/12 07:43:38;;;;;;;6.40;2.67;;;;;;;;;;5107404;27;20015;-59
2023/08/12 07:46:04;;;;;;;;;;;;;;;;;;5108330;28;20028;-59
2023/08/12 07:48:29;;;;;;;5.05;3.03;;;;;;;;;;5111029;27;20391;-59
2023/08/12 07:50:57;;;;;;;6.63;3.20;;;;;;;;;;5107396;28;20054;-59
2023/08/12 07:53:23;;;;;;;6.57;3.55;;;;;;;;;;5120738;28;20085;-58
2023/08/12 07:55:48;;;;;;;11.57;3.20;;;;;;;;;;5120987;28;20035;-59
2023/08/12 07:58:13;;;;;;;;;;;;;;;;;;5128650;27;20553;-58
2023/08/12 08:00:38;;;;;;;7.53;3.08;;;;;;;;;;5111204;28;20402;-59
2023/08/12 08:03:04;;;;;;;4.97;2.80;;;;;;;;;;5111064;28;20024;-58
2023/08/12 08:05:29;;;;;;;;;;;;;;;;;;5110875;28;20528;-58
2023/08/12 08:07:54;;;;;;;6.40;3.10;;;;;;;;;;5110644;27;20316;-57
2023/08/12 08:10:19;;;;;;;5.40;3.00;;;;;;;;;;5117984;27;20094;-60
2023/08/12 08:12:44;;;;;;;;;;;;;;;;;;5134130;27;20475;-58
2023/08/12 08:15:09;;;;;;;7.40;2.92;;;;;;;;;;5119424;27;20355;-58
2023/08/12 08:17:35;;;;;;;6.43;3.20;;;;;;;;;;5125161;27;20047;-58
2023/08/12 08:20:00;;;;;;;;;;;;;;;;;;5115811;27;20020;-59
2023/08/12 08:22:25;;;;;;;6.32;2.90;;;;;;;;;;5114760;28;19907;-59
2023/08/12 08:24:50;;;;;;;5.53;3.27;;;;;;;;;;5114593;28;20026;-59
2023/08/12 08:27:15;;;;;;;5.73;2.63;;;;;;;;;;5116137;27;20023;-58
2023/08/12 08:29:40;;;;;;;;;;;;;;;;;;5115406;27;20050;-58
2023/08/12 08:32:06;;;;;;;4.68;2.80;;;;;;;;;;5116843;27;20374;-58
2023/08/12 08:34:31;;;;;;;;;;;;;;;;;;5115659;27;20027;-59
2023/08/12 08:36:56;;;;;;;5.05;2.70;;;;;;;;;;5127874;27;19914;-57
2023/08/12 08:39:21;;;;;;;;;;;;;;;;;;5118471;27;20046;-58
2023/08/12 08:41:47;;;;;;;6.73;2.97;;;;;;;;;;5123344;27;20370;-58
2023/08/12 08:44:12;;;;;;;;;;;;;;;;;;5131973;27;20058;-59
2023/08/12 08:46:37;;;;;;;5.72;3.00;;;;;;;;;;5123453;27;20412;-59
2023/08/12 08:49:02;;;;;;;;;;;;;;;;;;5133277;27;20031;-59
2023/08/12 08:51:30;;;;;;;4.93;2.70;;;;;;;;;;5131815;27;20600;-59
2023/08/12 08:53:56;;;;;;;6.00;2.85;;;;;;;;;;5134657;27;20015;-59
2023/08/12 08:56:21;;;;;;;;;;;;;;;;;;5135241;27;20026;-58
2023/08/12 08:58:46;;;;;;;5.30;2.90;;;;;;;;;;5128555;27;19907;-58
2023/08/12 09:01:12;;;;;;;;;;;;;;;;;;5120015;27;20082;-60
2023/08/12 09:03:38;;;;;;;5.57;2.95;;;;;;;;;;5117585;27;19922;-58
2023/08/12 09:06:03;;;;;;;6.65;3.20;;;;;;;;;;5113765;27;20019;-58
2023/08/12 09:08:29;;;;;;;;;;;;;;;;;;5116236;27;20032;-58
2023/08/12 09:10:54;;;;;;;5.55;2.95;;;;;;;;;;5114754;28;19904;-59
2023/08/12 09:13:20;;;;;;;5.65;2.80;;;;;;;;;;5117570;27;20023;-57
2023/08/12 09:15:45;;;;;;;;;;;;;;;;;;5118534;27;20100;-58
2023/08/12 09:18:10;;;;;;;4.93;2.83;;;;;;;;;;5115577;27;19916;-58
2023/08/12 09:20:35;;;;;;;;;;;;;;;;;;5128462;27;20097;-57
2023/08/12 09:23:02;;;;;;;6.70;2.80;;;;;;;;;;5120670;27;20374;-59
2023/08/12 09:25:29;;;;;;;4.47;2.60;;;;;;;;;;5118133;27;20023;-58
2023/08/12 09:27:55;;;;;;;5.93;2.58;;;;;;;;;;5126897;27;20015;-58
2023/08/12 09:30:20;;;;;;;5.07;2.50;;;;;;;;;;5133180;27;20155;-58
2023/08/12 09:32:57;;;;;;;4.37;2.30;;;;;;;;;;5134527;27;20060;-58
2023/08/12 09:35:23;;;;;;;3.97;2.30;;;;;;;;;;5135211;27;20331;-58
2023/08/12 09:37:48;;;;;;;;;;;;;;;;;;5136722;27;20016;-57
2023/08/12 09:40:13;;;;;;;5.77;2.40;;;;;;;;;;5134526;27;19918;-58
2023/08/12 09:42:44;;;;;;;4.53;1.75;;;;;;;;;;5133896;27;20027;-61
2023/08/12 09:45:09;;;;;;;4.03;2.00;;;;;;;;;;5134155;27;20471;-59
2023/08/12 09:47:34;;;;;;;4.43;1.93;;;;;;;;;;5115189;27;20084;-59
2023/08/12 09:50:00;;;;;;;3.40;1.50;;;;;;;;;;5127975;27;20066;-58
2023/08/12 09:52:25;;;;;;;3.63;1.52;;;;;;;;;;5134062;27;20035;-59
2023/08/12 09:54:53;;;;;;;3.43;1.40;;;;;;;;;;5133413;27;20430;-59
2023/08/12 09:57:20;;;;;;;4.22;1.60;;;;;;;;;;5134141;27;20027;-60
2023/08/12 09:59:46;;;;;;;4.40;1.50;;;;;;;;;;5135141;27;20042;-59
2023/08/12 10:02:17;;;;;;;3.88;1.40;;;;;;;;;;5133469;27;20019;-58
2023/08/12 10:04:44;;;;;;;7.18;1.70;;;;;;;;;;5132974;27;20041;-59
2023/08/12 10:07:10;;;;;;;4.65;1.60;;;;;;;;;;5134233;27;20019;-59
2023/08/12 10:09:36;;;;;;;3.10;1.37;;;;;;;;;;5133853;27;20394;-59
2023/08/12 10:12:02;;;;;;;4.35;1.50;;;;;;;;;;5133252;27;20027;-59
2023/08/12 10:14:28;;;;;;;4.00;1.50;;;;;;;;;;5133105;27;20015;-58
2023/08/12 10:16:54;;;;;;;3.50;1.65;;;;;;;;;;5133534;27;20038;-59
2023/08/12 10:19:21;;;;;;;4.03;1.60;;;;;;;;;;5133211;27;20100;-59
2023/08/12 10:21:47;;;;;;;3.65;1.67;;;;;;;;;;5133650;27;20493;-58
2023/08/12 10:24:13;;;;;;;3.38;1.60;;;;;;;;;;5133255;27;20049;-59
2023/08/12 10:26:40;;;;;;;3.85;1.60;;;;;;;;;;5132962;27;20016;-58
2023/08/12 10:29:05;;;;;;;4.18;1.70;;;;;;;;;;5120375;27;20114;-59
2023/08/12 10:31:30;;;;;;;4.00;1.58;;;;;;;;;;5133430;27;20554;-58
2023/08/12 10:33:57;;;;;;;3.70;1.70;;;;;;;;;;5142042;27;20028;-60
2023/08/12 10:36:22;;;;;;;3.92;1.60;;;;;;;;;;5117898;27;20023;-60
2023/08/12 10:38:48;;;;;;;3.83;1.63;;;;;;;;;;5126074;27;20083;-60
2023/08/12 10:41:17;;;;;;;3.33;1.40;;;;;;;;;;5117980;27;20072;-58
2023/08/12 10:43:53;;;;;;;3.58;1.80;;;;;;;;;;5129722;27;20026;-59
2023/08/12 10:46:34;;;;;;;4.20;1.40;;;;;;;;;;5120117;27;20028;-58
2023/08/12 10:49:03;;;;;;;3.60;1.88;;;;;;;;;;5119575;27;20030;-60
2023/08/12 10:51:42;;;;;;;3.65;1.75;;;;;;;;;;5125420;27;20035;-59
2023/08/12 10:54:17;;;;;;;4.57;1.88;;;;;;;;;;5129528;27;20042;-60
2023/08/12 10:57:01;;;;;;;4.32;2.00;;;;;;;;;;5124964;27;20015;-57
2023/08/12 10:59:49;;;;;;;4.70;1.73;;;;;;;;;;5115602;27;20022;-61
2023/08/12 11:02:33;;;;;;;4.35;1.92;;;;;;;;;;5107417;27;20027;-60
2023/08/12 11:05:03;;;;;;;4.65;1.60;;;;;;;;;;5124674;27;20540;-59
2023/08/12 11:07:28;;;;;;;4.75;1.85;;;;;;;;;;5125462;27;20071;-58
2023/08/12 11:09:53;;;;;;;3.97;1.87;;;;;;;;;;5127963;27;20023;-58
2023/08/12 11:12:27;;;;;;;5.30;1.40;;;;;;;;;;5128303;27;20072;-58
2023/08/12 11:14:53;;;;;;;4.80;1.70;;;;;;;;;;5123761;27;20050;-58
2023/08/12 11:17:18;;;;;;;3.50;1.70;;;;;;;;;;5126949;27;20494;-59
2023/08/12 11:19:44;;;;;;;5.45;1.90;;;;;;;;;;5126234;27;20037;-60
2023/08/12 11:22:09;;;;;;;4.00;2.07;;;;;;;;;;5116586;27;20011;-58
2023/08/12 11:24:36;;;;;;;4.10;1.80;;;;;;;;;;5110991;28;20020;-59
2023/08/12 11:27:02;;;;;;;3.78;1.90;;;;;;;;;;5122723;27;20020;-59
2023/08/12 11:29:27;;;;;;;3.70;1.67;;;;;;;;;;5126595;27;20035;-60
2023/08/12 11:31:52;;;;;;;6.07;1.90;;;;;;;;;;5127568;27;20087;-60
2023/08/12 11:34:18;;;;;;;4.97;2.13;;;;;;;;;;5126124;27;20077;-60
2023/08/12 11:36:43;;;;;;;5.07;2.00;;;;;;;;;;5115516;27;20027;-59
2023/08/12 11:39:08;;;;;;;5.03;2.00;;;;;;;;;;5110726;27;20014;-58
2023/08/12 11:41:33;;;;;;;3.90;1.80;;;;;;;;;;5111903;27;20024;-58
2023/08/12 11:43:59;;;;;;;3.65;1.83;;;;;;;;;;5118995;27;20110;-59
2023/08/12 11:46:25;;;;;;;4.60;2.00;;;;;;;;;;5128121;27;20019;-58
2023/08/12 11:48:50;;;;;;;4.60;1.88;;;;;;;;;;5115077;27;20384;-58
2023/08/12 11:51:15;;;;;;;5.03;2.27;;;;;;;;;;5128002;27;20023;-58
2023/08/12 11:53:40;;;;;;;4.47;1.80;;;;;;;;;;5126740;28;20019;-58
2023/08/12 11:56:05;;;;;;;5.60;2.00;;;;;;;;;;5124891;27;20030;-58
2023/08/12 11:58:37;;;;;;;4.23;2.10;;;;;;;;;;5121591;27;20115;-60
2023/08/12 12:01:02;;;;;;;3.80;1.90;;;;;;;;;;5125621;28;20080;-60
2023/08/12 12:03:27;;;;;;;4.33;1.80;;;;;;;;;;5119261;27;20107;-59
2023/08/12 12:05:55;;;;;;;4.32;2.10;;;;;;;;;;5120804;27;20060;-60
2023/08/12 12:08:20;;;;;;;4.78;2.28;;;;;;;;;;5126854;27;20015;-60
2023/08/12 12:10:45;;;;;;;5.70;2.33;;;;;;;;;;5122783;27;20026;-59
2023/08/12 12:13:11;;;;;;;4.60;2.30;;;;;;;;;;5121928;28;20044;-58
2023/08/12 12:15:43;;;;;;;4.70;2.40;;;;;;;;;;5120008;27;20007;-60
2023/08/12 12:18:12;;;;;;;4.35;2.50;;;;;;;;;;5120324;27;20508;-58
2023/08/12 12:20:41;;;;;;;5.05;2.30;;;;;;;;;;5114551;27;20102;-58
2023/08/12 12:23:07;;;;;;;5.93;2.40;;;;;;;;;;5120109;28;20031;-58
2023/08/12 12:25:32;;;;;;;5.00;2.10;;;;;;;;;;5116363;27;20105;-60
2023/08/12 12:27:57;;;;;;;5.47;2.40;;;;;;;;;;5122697;27;20011;-58
2023/08/12 12:30:22;;;;;;;5.60;2.15;;;;;;;;;;5116400;27;20068;-58
2023/08/12 12:32:48;;;;;;;6.83;2.50;;;;;;;;;;5117900;28;20080;-58
2023/08/12 12:35:13;;;;;;;6.28;2.33;;;;;;;;;;5125616;27;20043;-58
2023/08/12 12:37:39;;;;;;;4.53;2.47;;;;;;;;;;5123773;27;20114;-59
2023/08/12 12:40:07;;;;;;;4.90;2.47;;;;;;;;;;5127117;27;20016;-59
2023/08/12 12:42:33;;;;;;;5.55;2.90;;;;;;;;;;5125070;27;20024;-58
2023/08/12 12:44:58;;;;;;;6.18;2.60;;;;;;;;;;5123053;27;20027;-60
2023/08/12 12:47:23;;;;;;;5.50;2.30;;;;;;;;;;5122875;27;20080;-58
2023/08/12 12:49:48;;;;;;;6.13;2.13;;;;;;;;;;5119976;27;20019;-58
2023/08/12 12:52:13;;;;;;;5.63;2.83;;;;;;;;;;5129169;27;20037;-59
2023/08/12 12:54:39;;;;;;;4.83;2.43;;;;;;;;;;5124957;27;20019;-60
2023/08/12 12:57:04;;;;;;;5.67;2.63;;;;;;;;;;5129393;27;20456;-58
2023/08/12 12:59:29;;;;;;;6.40;2.80;;;;;;;;;;5126746;27;20501;-58
2023/08/12 13:01:54;;;;;;;6.50;2.58;;;;;;;;;;5127979;27;20092;-59
2023/08/12 13:04:19;;;;;;;5.03;2.53;;;;;;;;;;5130716;27;20393;-58
2023/08/12 13:06:45;;;;;;;4.50;2.65;;;;;;;;;;5125132;27;20036;-58
2023/08/12 13:09:10;;;;;;;4.73;2.30;;;;;;;;;;5127195;27;20117;-58
2023/08/12 13:11:35;;;;;;;5.97;2.70;;;;;;;;;;5131310;27;20027;-58
2023/08/12 13:14:01;;;;;;;5.70;2.60;;;;;;;;;;5125928;27;20031;-59
2023/08/12 13:16:26;;;;;;;6.57;2.72;;;;;;;;;;5119306;27;20042;-60
2023/08/12 13:18:52;;;;;;;7.05;2.30;;;;;;;;;;5130881;27;20061;-59
2023/08/12 13:21:17;;;;;;;5.17;2.13;;;;;;;;;;5128042;27;20015;-59
2023/08/12 13:23:42;;;;;;;6.90;3.15;;;;;;;;;;5127405;27;20519;-60
2023/08/12 13:26:07;;;;;;;5.38;2.90;;;;;;;;;;5128980;27;20023;-59
2023/08/12 13:28:32;;;;;;;6.43;3.07;;;;;;;;;;5126100;27;20471;-59
2023/08/12 13:30:59;;;;;;;5.30;2.90;;;;;;;;;;5124437;27;20026;-59
2023/08/12 13:33:24;;;;;;;7.27;3.10;;;;;;;;;;5125614;27;20011;-59
2023/08/12 13:35:49;;;;;;;7.55;3.30;;;;;;;;;;5123184;27;20019;-63
2023/08/12 13:38:14;;;;;;;5.43;2.70;;;;;;;;;;5129683;27;20017;-59
2023/08/12 13:40:39;;;;;;;5.40;3.03;;;;;;;;;;5126530;27;20052;-59
2023/08/12 13:43:04;;;;;;;6.90;3.40;;;;;;;;;;5132880;27;20094;-59
2023/08/12 13:45:30;;;;;;;5.72;3.20;;;;;;;;;;5130322;27;20356;-59
2023/08/12 13:47:55;;;;;;;5.83;3.13;;;;;;;;;;5130677;27;20026;-59
2023/08/12 13:50:20;;;;;;;7.07;3.53;;;;;;;;;;5135990;27;20031;-59
2023/08/12 13:52:50;;;;;;;7.10;3.50;;;;;;;;;;5132965;27;20493;-59
2023/08/12 13:55:15;;;;;;;7.32;3.67;;;;;;;;;;5124094;27;20358;-59
2023/08/12 13:57:40;;;;;;;7.72;3.63;;;;;;;;;;5131689;27;20509;-59
2023/08/12 14:00:09;;;;;;;7.37;3.43;;;;;;;;;;5132954;27;20027;-59
2023/08/12 14:02:34;;;;;;;7.53;3.75;;;;;;;;;;5134601;27;20030;-59
2023/08/12 14:05:00;;;;;;;7.00;3.30;;;;;;;;;;5134448;27;20391;-59
2023/08/12 14:07:25;;;;;;;6.63;3.33;;;;;;;;;;5135124;27;20030;-59
2023/08/12 14:09:50;;;;;;;7.13;3.30;;;;;;;;;;5133198;27;20663;-60
2023/08/12 14:12:15;;;;;;;7.60;3.43;;;;;;;;;;5133300;27;20052;-59
2023/08/12 14:14:40;;;;;;;5.93;3.13;;;;;;;;;;5127220;27;20020;-59
2023/08/12 14:17:05;;;;;;;5.93;3.13;;;;;;;;;;5117972;27;20196;-60
2023/08/12 14:19:31;;;;;;;6.20;2.90;;;;;;;;;;5133069;27;20026;-59
2023/08/12 14:21:56;;;;;;;6.13;3.35;;;;;;;;;;5130088;27;20030;-59
2023/08/12 14:24:21;;;;;;;5.60;3.08;;;;;;;;;;5125761;27;20390;-60
2023/08/12 14:26:46;;;;;;;6.53;3.10;;;;;;;;;;5126488;27;20084;-60
2023/08/12 14:29:11;;;;;;;5.77;3.00;;;;;;;;;;5131730;27;20011;-60
2023/08/12 14:31:36;;;;;;;7.27;2.87;;;;;;;;;;5128165;27;20011;-59
2023/08/12 14:34:03;;;;;;;4.90;2.88;;;;;;;;;;5132180;27;20031;-59
2023/08/12 14:36:28;;;;;;;5.43;2.70;;;;;;;;;;5125088;27;20084;-59
2023/08/12 14:38:53;;;;;;;4.93;2.77;;;;;;;;;;5131971;27;20019;-59
2023/08/12 14:41:18;;;;;;;5.20;2.60;;;;;;;;;;5112986;27;20030;-59